Terminal Aerodrome Forecast
Issued by NWS

Home | Current Version | Previous Version | Text Only | Print | Product List | Glossary On
Versions: 1 2 3 4 5 6 7 8 9 10 11 12 13 14 15 16 17 18 19
000
FTUS43 KSGF 211700
TAFJLN
TAF
KJLN 211720Z 2118/2218 23008KT P6SM VCSH BKN015 OVC035
     FM212100 26008KT P6SM -SHRA VCTS BKN040CB OVC120
     FM220000 33007KT P6SM BKN100
     FM220600 35006KT P6SM SKC
     FM221500 02008KT P6SM SKC=

USA.gov is the U.S. government's official web portal to all federal, state and local government web resources and services.